createdAt,value
2023-05-12T00:00:57.891Z,14.85
2023-05-12T00:03:44.257Z,14.05
2023-05-12T00:06:31.276Z,11.80
2023-05-12T00:09:17.320Z,14.80
2023-05-12T00:12:03.809Z,10.68
2023-05-12T00:14:50.098Z,11.15
2023-05-12T00:17:36.319Z,13.43
2023-05-12T00:20:22.666Z,14.55
2023-05-12T00:23:08.775Z,11.32
2023-05-12T00:25:54.880Z,13.27
2023-05-12T00:28:41.152Z,18.33
2023-05-12T00:31:27.042Z,18.15
2023-05-12T00:34:13.092Z,10.75
2023-05-12T00:36:58.985Z,12.57
2023-05-12T00:39:44.820Z,13.82
2023-05-12T00:42:30.794Z,9.93
2023-05-12T00:45:17.408Z,11.85
2023-05-12T00:48:04.937Z,13.50
2023-05-12T00:50:51.178Z,13.73
2023-05-12T00:53:48.236Z,12.35
2023-05-12T00:56:39.548Z,15.25
2023-05-12T00:59:27.235Z,9.23
2023-05-12T01:02:13.392Z,15.07
2023-05-12T01:04:59.748Z,13.07
2023-05-12T01:07:47.036Z,12.70
2023-05-12T01:10:33.512Z,9.48
2023-05-12T01:13:19.497Z,9.85
2023-05-12T01:16:10.114Z,9.40
2023-05-12T01:18:56.929Z,12.55
2023-05-12T01:21:43.010Z,9.90
2023-05-12T01:24:30.953Z,13.82
2023-05-12T01:27:17.973Z,10.18
2023-05-12T01:30:05.955Z,9.60
2023-05-12T01:32:54.882Z,11.38
2023-05-12T01:35:41.268Z,14.75
2023-05-12T01:38:27.612Z,10.63
2023-05-12T01:41:13.596Z,11.40
2023-05-12T01:43:59.650Z,12.68
2023-05-12T01:46:47.213Z,13.15
2023-05-12T01:49:33.430Z,15.20
2023-05-12T01:52:20.708Z,9.48
2023-05-12T01:55:07.312Z,11.10
2023-05-12T01:57:59.525Z,18.00
2023-05-12T02:00:45.308Z,11.77
2023-05-12T02:03:35.250Z,13.15
2023-05-12T02:06:22.342Z,9.10
2023-05-12T02:09:09.045Z,11.32
2023-05-12T02:11:54.966Z,13.48
2023-05-12T02:14:40.949Z,10.65
2023-05-12T02:17:28.866Z,8.93
2023-05-12T02:20:18.546Z,10.02
2023-05-12T02:23:04.562Z,14.35
2023-05-12T02:25:52.573Z,10.93
2023-05-12T02:28:39.720Z,11.43
2023-05-12T02:31:25.944Z,13.98
2023-05-12T02:34:12.038Z,10.73
2023-05-12T02:36:58.020Z,12.00
2023-05-12T02:39:44.036Z,13.02
2023-05-12T02:42:35.552Z,10.43
2023-05-12T02:45:21.749Z,10.52
2023-05-12T02:48:07.848Z,14.73
2023-05-12T02:50:53.716Z,13.07
2023-05-12T02:53:39.703Z,10.25
2023-05-12T02:56:26.134Z,9.45
2023-05-12T02:59:12.490Z,10.18
2023-05-12T03:01:58.766Z,12.80
2023-05-12T03:04:45.022Z,17.00
2023-05-12T03:07:31.278Z,12.48
2023-05-12T03:10:18.808Z,9.40
2023-05-12T03:13:05.917Z,11.93
2023-05-12T03:15:52.308Z,14.02
2023-05-12T03:18:39.430Z,11.52
2023-05-12T03:21:26.020Z,11.43
2023-05-12T03:24:11.920Z,9.80
2023-05-12T03:26:57.755Z,11.30
2023-05-12T03:29:49.633Z,16.00
2023-05-12T03:32:39.215Z,14.05
2023-05-12T03:35:56.796Z,17.55
2023-05-12T03:38:44.357Z,13.23
2023-05-12T03:41:35.063Z,10.88
2023-05-12T03:44:21.470Z,11.90
2023-05-12T03:47:07.903Z,11.25
2023-05-12T03:49:55.934Z,14.82
2023-05-12T03:52:42.091Z,12.30
2023-05-12T03:55:28.271Z,12.55
2023-05-12T03:58:37.300Z,13.20
2023-05-12T04:01:24.455Z,10.63
2023-05-12T04:04:19.428Z,14.13
2023-05-12T04:07:06.733Z,12.73
2023-05-12T04:09:52.427Z,14.82
2023-05-12T04:12:38.505Z,12.88
2023-05-12T04:15:25.250Z,11.48
2023-05-12T04:18:11.046Z,13.75
2023-05-12T04:20:59.094Z,12.77
2023-05-12T04:23:45.659Z,18.70
2023-05-12T04:26:31.617Z,18.75
2023-05-12T04:29:22.028Z,16.92
2023-05-12T04:32:11.855Z,17.05
2023-05-12T04:34:58.126Z,11.93
2023-05-12T04:37:45.199Z,14.43
2023-05-12T04:40:34.116Z,12.32
2023-05-12T04:46:13.974Z,17.50
2023-05-12T04:49:37.272Z,18.05
2023-05-12T04:52:25.417Z,18.33
2023-05-12T04:55:11.526Z,19.20
2023-05-12T04:58:01.960Z,18.25
2023-05-12T05:01:28.594Z,14.30
2023-05-12T05:04:15.093Z,20.60
2023-05-12T05:07:01.150Z,17.80
2023-05-12T05:14:13.757Z,21.63
2023-05-12T05:17:00.236Z,22.75
2023-05-12T05:19:57.113Z,17.60
2023-05-12T05:22:52.454Z,18.80
2023-05-12T05:25:39.658Z,18.13
2023-05-12T05:28:26.739Z,17.80
2023-05-12T05:31:17.310Z,31.20
2023-05-12T05:34:03.806Z,21.27
2023-05-12T05:36:50.317Z,16.83
2023-05-12T05:39:36.344Z,15.63
2023-05-12T05:42:22.311Z,25.23
2023-05-12T05:45:10.208Z,28.58
2023-05-12T05:47:57.477Z,18.50
2023-05-12T05:50:44.736Z,29.13
2023-05-12T05:53:30.845Z,25.48
2023-05-12T05:56:16.722Z,24.98
2023-05-12T05:59:04.723Z,22.92
2023-05-12T06:01:50.533Z,28.38
2023-05-12T06:04:36.338Z,31.98
2023-05-12T06:07:22.305Z,45.72
2023-05-12T06:10:08.974Z,51.88
2023-05-12T06:12:54.636Z,37.20
2023-05-12T06:15:40.533Z,36.40
2023-05-12T06:18:26.705Z,41.22
2023-05-12T06:21:12.659Z,37.00
2023-05-12T06:23:58.279Z,37.25
2023-05-12T06:26:44.067Z,38.60
2023-05-12T06:29:30.074Z,22.70
2023-05-12T06:32:16.197Z,20.63
2023-05-12T06:35:02.446Z,24.38
2023-05-12T06:37:51.069Z,24.10
2023-05-12T06:40:37.301Z,28.73
2023-05-12T06:43:23.450Z,22.63
2023-05-12T06:46:14.681Z,27.63
2023-05-12T06:49:01.986Z,23.75
2023-05-12T06:51:48.573Z,25.45
2023-05-12T06:54:34.905Z,23.50
2023-05-12T06:57:20.570Z,28.92
2023-05-12T07:00:07.758Z,34.97
2023-05-12T07:02:53.631Z,30.13
2023-05-12T07:05:39.711Z,39.97
2023-05-12T07:08:26.091Z,92.93
2023-05-12T07:11:12.276Z,35.30
2023-05-12T07:13:57.922Z,38.13
2023-05-12T07:16:43.874Z,32.28
2023-05-12T07:19:30.220Z,27.42
2023-05-12T07:22:16.256Z,32.22
2023-05-12T07:25:02.380Z,22.38
2023-05-12T07:27:49.583Z,22.15
2023-05-12T07:30:36.245Z,24.55
2023-05-12T07:33:22.039Z,20.00
2023-05-12T07:36:09.024Z,23.23
2023-05-12T07:38:54.718Z,16.33
2023-05-12T07:41:41.224Z,18.90
2023-05-12T07:44:28.363Z,23.20
2023-05-12T07:47:15.187Z,25.85
2023-05-12T07:50:01.401Z,19.77
2023-05-12T07:52:52.152Z,24.08
2023-05-12T07:55:39.204Z,26.23
2023-05-12T07:58:25.496Z,23.88
2023-05-12T08:01:11.593Z,31.13
2023-05-12T08:03:57.368Z,31.30
2023-05-12T08:06:43.199Z,30.92
2023-05-12T08:09:29.026Z,30.02
2023-05-12T08:12:15.178Z,26.00
2023-05-12T08:15:01.482Z,27.92
2023-05-12T08:17:47.600Z,28.73
2023-05-12T08:20:33.555Z,22.38
2023-05-12T08:23:19.728Z,34.95
2023-05-12T08:26:05.564Z,26.52
2023-05-12T08:28:51.622Z,34.55
2023-05-12T08:31:38.733Z,44.80
2023-05-12T08:34:25.524Z,47.55
2023-05-12T08:37:11.893Z,32.35
2023-05-12T08:39:58.040Z,31.60
2023-05-12T08:42:47.292Z,39.42
2023-05-12T08:45:34.162Z,44.55
2023-05-12T08:48:20.496Z,35.83
2023-05-12T08:51:11.871Z,26.20
2023-05-12T08:53:57.777Z,30.60
2023-05-12T08:59:35.417Z,25.40
2023-05-12T09:02:24.739Z,35.47
2023-05-12T09:05:10.846Z,36.63
2023-05-12T09:07:57.069Z,33.60
2023-05-12T09:10:43.687Z,49.45
2023-05-12T09:13:46.252Z,49.80
2023-05-12T09:16:36.647Z,39.85
2023-05-12T09:19:22.661Z,50.15
2023-05-12T09:22:14.772Z,46.75
2023-05-12T09:25:01.234Z,44.72
2023-05-12T09:27:49.338Z,45.85
2023-05-12T09:30:38.422Z,36.75
2023-05-12T09:33:25.551Z,47.85
2023-05-12T09:36:12.338Z,45.15
2023-05-12T09:39:07.269Z,45.00
2023-05-12T09:41:54.007Z,44.08
2023-05-12T09:44:41.300Z,40.72
2023-05-12T09:47:40.791Z,34.75
2023-05-12T09:50:28.895Z,29.10
2023-05-12T09:53:19.158Z,28.33
2023-05-12T09:56:05.466Z,81.25
2023-05-12T09:58:51.524Z,28.65
2023-05-12T10:01:37.680Z,32.08
2023-05-12T10:04:23.982Z,20.77
2023-05-12T10:07:12.301Z,36.08
2023-05-12T10:10:00.164Z,30.15
2023-05-12T10:12:46.442Z,27.67
2023-05-12T10:15:33.856Z,27.38
2023-05-12T10:18:19.982Z,29.92
2023-05-12T10:21:07.038Z,21.40
2023-05-12T10:23:54.511Z,26.00
2023-05-12T10:26:42.469Z,18.77
2023-05-12T10:29:33.018Z,24.98
2023-05-12T10:32:19.038Z,30.73
2023-05-12T10:35:13.261Z,30.40
2023-05-12T10:38:09.806Z,19.55
2023-05-12T10:41:01.257Z,22.92
2023-05-12T10:43:49.207Z,16.67
2023-05-12T10:46:35.728Z,20.60
2023-05-12T10:49:39.156Z,23.55
2023-05-12T10:52:27.794Z,21.13
2023-05-12T10:55:14.454Z,13.55
2023-05-12T10:58:12.312Z,16.58
2023-05-12T11:01:08.140Z,25.30
2023-05-12T11:03:59.175Z,15.93
2023-05-12T11:06:46.982Z,23.85
2023-05-12T11:09:36.918Z,14.10
2023-05-12T11:12:32.713Z,20.27
2023-05-12T11:15:19.235Z,12.05
2023-05-12T11:18:06.007Z,18.65
2023-05-12T11:20:52.027Z,19.05
2023-05-12T11:23:37.892Z,20.98
2023-05-12T11:26:23.849Z,16.20
2023-05-12T11:29:11.452Z,19.63
2023-05-12T11:31:58.778Z,13.40
2023-05-12T11:34:45.507Z,15.80
2023-05-12T11:37:37.046Z,26.90
2023-05-12T11:40:23.472Z,23.80
2023-05-12T11:43:10.613Z,29.58
2023-05-12T11:45:56.987Z,19.08
2023-05-12T11:48:43.098Z,21.83
2023-05-12T11:51:29.014Z,22.70
2023-05-12T11:54:15.197Z,15.05
2023-05-12T11:57:01.401Z,14.95
2023-05-12T12:00:01.923Z,10.02
2023-05-12T12:02:51.564Z,23.63
2023-05-12T12:05:38.370Z,10.48
2023-05-12T12:08:24.663Z,18.20
2023-05-12T12:11:11.506Z,17.63
2023-05-12T12:13:57.813Z,25.52
2023-05-12T12:16:43.948Z,11.20
2023-05-12T12:19:30.454Z,11.57
2023-05-12T12:22:16.510Z,11.40
2023-05-12T12:25:02.937Z,19.70
2023-05-12T12:27:49.345Z,13.73
2023-05-12T12:30:35.400Z,13.48
2023-05-12T12:33:21.617Z,8.95
2023-05-12T12:36:09.264Z,11.43
2023-05-12T12:38:55.433Z,24.98
2023-05-12T12:41:41.331Z,11.65
2023-05-12T12:44:27.855Z,18.45
2023-05-12T12:47:13.860Z,7.55
2023-05-12T12:49:59.954Z,9.88
2023-05-12T12:52:46.040Z,11.30
2023-05-12T12:55:32.181Z,7.45
2023-05-12T12:58:17.986Z,7.20
2023-05-12T13:01:04.146Z,5.93
2023-05-12T13:03:50.235Z,10.02
2023-05-12T13:06:36.226Z,6.70
2023-05-12T13:09:22.362Z,6.53
2023-05-12T13:12:08.801Z,11.63
2023-05-12T13:14:55.022Z,5.32
2023-05-12T13:17:41.168Z,12.50
2023-05-12T13:20:27.414Z,8.43
2023-05-12T13:23:13.913Z,11.70
2023-05-12T13:25:59.842Z,5.25
2023-05-12T13:28:46.828Z,8.73
2023-05-12T13:31:32.650Z,12.52
2023-05-12T13:34:18.792Z,4.97
2023-05-12T13:37:05.124Z,4.35
2023-05-12T13:39:51.071Z,5.25
2023-05-12T13:42:37.108Z,6.88
2023-05-12T13:45:23.182Z,10.85
2023-05-12T13:48:10.409Z,8.30
2023-05-12T13:50:56.587Z,6.28
2023-05-12T13:53:43.202Z,10.45
2023-05-12T13:56:35.877Z,6.80
2023-05-12T13:59:21.843Z,10.48
2023-05-12T14:02:09.861Z,21.92
2023-05-12T14:04:56.685Z,25.38
2023-05-12T14:07:42.765Z,12.20
2023-05-12T14:10:28.665Z,12.63
2023-05-12T14:13:14.671Z,7.57
2023-05-12T14:16:00.533Z,9.25
2023-05-12T14:18:46.342Z,6.47
2023-05-12T14:21:32.465Z,17.10
2023-05-12T14:24:18.247Z,17.48
2023-05-12T14:27:04.517Z,19.20
2023-05-12T14:29:51.771Z,31.77
2023-05-12T14:32:38.058Z,12.20
2023-05-12T14:35:27.559Z,25.60
2023-05-12T14:38:14.058Z,27.92
2023-05-12T14:40:59.862Z,15.85
2023-05-12T14:43:45.888Z,14.48
2023-05-12T14:46:31.855Z,13.90
2023-05-12T14:49:21.160Z,9.00
2023-05-12T14:52:07.044Z,11.65
2023-05-12T14:54:52.801Z,12.23
2023-05-12T14:57:39.193Z,13.10
2023-05-12T15:00:25.376Z,10.75
2023-05-12T15:03:11.759Z,9.50
2023-05-12T15:06:06.477Z,20.00
2023-05-12T15:08:53.096Z,32.17
2023-05-12T15:11:39.729Z,18.40
2023-05-12T15:14:25.829Z,11.38
2023-05-12T15:17:13.242Z,12.02
2023-05-12T15:19:59.543Z,21.38
2023-05-12T15:22:48.311Z,13.35
2023-05-12T15:26:20.791Z,14.10
2023-05-12T15:29:16.467Z,15.73
2023-05-12T15:32:03.135Z,19.65
2023-05-12T15:34:49.159Z,22.73
2023-05-12T15:37:35.417Z,32.17
2023-05-12T15:40:21.497Z,29.55
2023-05-12T15:43:07.921Z,20.02
2023-05-12T15:45:53.729Z,29.73
2023-05-12T15:48:39.932Z,31.20
2023-05-12T15:51:26.084Z,36.15
2023-05-12T15:54:12.615Z,31.40
2023-05-12T15:56:59.094Z,33.08
2023-05-12T15:59:46.044Z,24.80
2023-05-12T16:02:33.139Z,30.23
2023-05-12T16:05:19.775Z,27.73
2023-05-12T16:08:05.763Z,53.78
2023-05-12T16:10:51.964Z,55.45
2023-05-12T16:13:38.104Z,42.63
2023-05-12T16:16:24.482Z,20.80
2023-05-12T16:19:10.861Z,20.00
2023-05-12T16:21:58.555Z,21.15
2023-05-12T16:24:44.590Z,22.77
2023-05-12T16:27:33.600Z,13.38
2023-05-12T16:30:21.028Z,18.80
2023-05-12T16:33:07.367Z,14.25
2023-05-12T16:35:55.508Z,14.85
2023-05-12T16:38:41.699Z,17.73
2023-05-12T16:41:28.776Z,17.27
2023-05-12T16:44:15.012Z,10.32
2023-05-12T16:47:00.854Z,11.27
2023-05-12T16:49:47.058Z,8.35
2023-05-12T16:52:33.659Z,10.68
2023-05-12T16:55:20.001Z,10.65
2023-05-12T16:58:07.248Z,11.27
2023-05-12T17:00:53.703Z,18.17
2023-05-12T17:03:39.994Z,18.50
2023-05-12T17:06:25.962Z,18.88
2023-05-12T17:09:13.342Z,13.98
2023-05-12T17:11:59.366Z,75.03
2023-05-12T17:14:48.000Z,52.13
2023-05-12T17:17:44.258Z,47.03
2023-05-12T17:20:30.445Z,22.92
2023-05-12T17:23:20.510Z,15.50
2023-05-12T17:26:06.813Z,14.80
2023-05-12T17:28:53.333Z,13.07
2023-05-12T17:31:39.688Z,16.10
2023-05-12T17:34:25.723Z,11.50
2023-05-12T17:37:11.994Z,16.00
2023-05-12T17:39:57.955Z,8.40
2023-05-12T17:42:44.759Z,13.68
2023-05-12T17:45:30.851Z,13.45
2023-05-12T17:48:16.994Z,9.23
2023-05-12T17:51:03.498Z,8.25
2023-05-12T17:53:49.424Z,8.95
2023-05-12T17:56:35.393Z,12.57
2023-05-12T17:59:21.414Z,18.65
2023-05-12T18:02:07.459Z,35.25
2023-05-12T18:04:53.672Z,18.13
2023-05-12T18:07:39.578Z,53.00
2023-05-12T18:10:25.738Z,61.80
2023-05-12T18:13:11.908Z,21.05
2023-05-12T18:15:58.013Z,15.18
2023-05-12T18:18:46.151Z,18.17
2023-05-12T18:21:32.815Z,19.25
2023-05-12T18:24:19.129Z,11.35
2023-05-12T18:27:06.580Z,19.15
2023-05-12T18:29:52.896Z,14.70
2023-05-12T18:32:41.209Z,14.65
2023-05-12T18:35:27.455Z,18.17
2023-05-12T18:38:13.793Z,37.30
2023-05-12T18:41:00.422Z,75.40
2023-05-12T18:43:46.210Z,40.53
2023-05-12T18:46:32.087Z,13.43
2023-05-12T18:49:17.882Z,61.55
2023-05-12T18:52:06.141Z,29.05
2023-05-12T18:54:52.228Z,19.15
2023-05-12T18:57:38.368Z,10.27
2023-05-12T19:00:26.543Z,8.88
2023-05-12T19:03:12.926Z,6.72
2023-05-12T19:05:58.991Z,14.73
2023-05-12T19:08:46.277Z,12.15
2023-05-12T19:11:32.377Z,19.05
2023-05-12T19:14:18.469Z,119.03
2023-05-12T19:17:05.165Z,97.55
2023-05-12T19:19:50.925Z,17.00
2023-05-12T19:22:36.966Z,14.27
2023-05-12T19:25:23.771Z,10.35
2023-05-12T19:28:12.005Z,11.20
2023-05-12T19:30:59.091Z,8.35
2023-05-12T19:33:46.304Z,10.55
2023-05-12T19:36:36.092Z,4.45
2023-05-12T19:39:22.362Z,5.95
2023-05-12T19:42:08.613Z,10.00
2023-05-12T19:44:54.877Z,11.93
2023-05-12T19:47:41.500Z,52.65
2023-05-12T19:50:28.688Z,62.58
2023-05-12T19:53:15.052Z,31.73
2023-05-12T19:56:01.378Z,23.23
2023-05-12T19:58:48.009Z,37.50
2023-05-12T20:01:34.140Z,59.42
2023-05-12T20:04:20.572Z,122.35
2023-05-12T20:07:06.821Z,19.95
2023-05-12T20:09:53.182Z,17.67
2023-05-12T20:12:39.583Z,25.02
2023-05-12T20:15:25.948Z,20.05
2023-05-12T20:18:14.849Z,24.90
2023-05-12T20:21:01.313Z,29.70
2023-05-12T20:23:47.380Z,19.40
2023-05-12T20:26:33.440Z,17.90
2023-05-12T20:29:21.121Z,16.63
2023-05-12T20:32:07.025Z,10.88
2023-05-12T20:34:53.242Z,16.15
2023-05-12T20:37:40.605Z,14.73
2023-05-12T20:40:26.933Z,13.93
2023-05-12T20:43:14.608Z,15.85
2023-05-12T20:46:04.120Z,19.35
2023-05-12T20:48:50.576Z,14.38
2023-05-12T20:51:36.529Z,10.27
2023-05-12T20:54:22.559Z,11.13
2023-05-12T20:57:10.410Z,12.55
2023-05-12T20:59:57.073Z,15.70
2023-05-12T21:02:42.921Z,14.88
2023-05-12T21:05:29.202Z,11.93
2023-05-12T21:08:15.883Z,10.32
2023-05-12T21:11:01.924Z,14.68
2023-05-12T21:13:48.393Z,16.17
2023-05-12T21:16:34.540Z,10.10
2023-05-12T21:19:20.981Z,8.57
2023-05-12T21:22:07.525Z,16.65
2023-05-12T21:24:53.713Z,12.00
2023-05-12T21:27:40.871Z,18.65
2023-05-12T21:30:28.025Z,11.40
2023-05-12T21:33:15.256Z,9.65
2023-05-12T21:36:01.280Z,9.77
2023-05-12T21:38:48.007Z,15.43
2023-05-12T21:41:34.251Z,16.33
2023-05-12T21:44:20.453Z,8.95
2023-05-12T21:47:06.408Z,14.23
2023-05-12T21:49:56.184Z,12.93
2023-05-12T21:52:42.189Z,13.93
2023-05-12T21:55:28.094Z,11.60
2023-05-12T21:58:14.192Z,12.35
2023-05-12T22:01:00.066Z,18.50
2023-05-12T22:03:46.261Z,15.25
2023-05-12T22:06:32.518Z,13.93
2023-05-12T22:09:19.458Z,14.82
2023-05-12T22:12:05.982Z,16.92
2023-05-12T22:14:52.197Z,16.45
2023-05-12T22:17:38.600Z,11.60
2023-05-12T22:20:24.760Z,15.70
2023-05-12T22:23:10.915Z,14.65
2023-05-12T22:25:56.759Z,10.65
2023-05-12T22:28:44.586Z,12.00
2023-05-12T22:31:32.869Z,17.00
2023-05-12T22:34:18.745Z,12.88
2023-05-12T22:37:04.974Z,12.85
2023-05-12T22:39:51.218Z,10.38
2023-05-12T22:42:37.229Z,16.40
2023-05-12T22:45:23.390Z,8.77
2023-05-12T22:48:09.414Z,13.70
2023-05-12T22:50:55.591Z,15.77
2023-05-12T22:53:41.616Z,18.25
2023-05-12T22:56:27.768Z,14.73
2023-05-12T22:59:13.594Z,16.98
2023-05-12T23:01:59.864Z,23.63
2023-05-12T23:04:46.224Z,17.45
2023-05-12T23:07:32.352Z,16.45
2023-05-12T23:10:18.478Z,17.75
2023-05-12T23:13:04.263Z,20.80
2023-05-12T23:15:49.988Z,18.65
2023-05-12T23:18:35.751Z,22.13
2023-05-12T23:21:21.515Z,17.55
2023-05-12T23:24:09.025Z,13.52
2023-05-12T23:27:04.604Z,18.13
2023-05-12T23:29:53.581Z,18.23
2023-05-12T23:32:40.023Z,17.80
2023-05-12T23:35:26.611Z,14.68
2023-05-12T23:38:12.657Z,20.95
2023-05-12T23:40:58.535Z,14.35
2023-05-12T23:43:44.427Z,12.68
2023-05-12T23:46:30.600Z,15.75
2023-05-12T23:49:16.648Z,13.93
2023-05-12T23:52:02.601Z,18.30
2023-05-12T23:54:48.481Z,19.25
2023-05-12T23:57:34.190Z,12.52
